JBU1454 KJFK-KDCA
Flight info
| Callsign | JBU1454 |
|---|---|
| Flight time | N/A |
| Altitude | 30000 |
| Route | RBV Q430 COPES Q75 MXE CLIPR3 |
| Aircraft | A320/M-SDE3FGHIRWY/LB1 |
Departure
| Time | N/A |
|---|---|
| Airport | John F. Kennedy International Airport (KJFK) |
Arrival
| Time | 2026-04-24 19:02 |
|---|---|
| Airport | Ronald Reagan Washington National Airport (KDCA) |
| Time | Latitude | Longitude | Altitude | Speed | Heading |
|---|---|---|---|---|---|
| 2026-04-24 18:54 | 39.12387 | -77.05566 | 5318 ft | 241 kts | 276° |
| 2026-04-24 18:55 | 39.12637 | -77.09774 | 4794 ft | 232 kts | 275° |
| 2026-04-24 18:55 | 39.12461 | -77.11843 | 4440 ft | 237 kts | 247° |
| 2026-04-24 18:55 | 39.11335 | -77.13389 | 4169 ft | 240 kts | 209° |
| 2026-04-24 18:56 | 39.09746 | -77.13904 | 4001 ft | 236 kts | 180° |
| 2026-04-24 18:56 | 39.08154 | -77.13413 | 3841 ft | 229 kts | 154° |
| 2026-04-24 18:56 | 39.06791 | -77.12515 | 3836 ft | 210 kts | 152° |
| 2026-04-24 18:56 | 39.05510 | -77.11646 | 3658 ft | 201 kts | 152° |
| 2026-04-24 18:57 | 39.04300 | -77.10850 | 3462 ft | 194 kts | 153° |
| 2026-04-24 18:57 | 39.03096 | -77.10080 | 3178 ft | 193 kts | 154° |
| 2026-04-24 18:57 | 39.01876 | -77.09315 | 2877 ft | 192 kts | 154° |
| 2026-04-24 18:57 | 39.00669 | -77.08567 | 2585 ft | 190 kts | 154° |
| 2026-04-24 18:58 | 38.99416 | -77.08135 | 2315 ft | 186 kts | 180° |
| 2026-04-24 18:58 | 38.98175 | -77.08474 | 2087 ft | 177 kts | 206° |
| 2026-04-24 18:58 | 38.97140 | -77.09220 | 1896 ft | 162 kts | 215° |
| 2026-04-24 18:58 | 38.96211 | -77.09983 | 1578 ft | 155 kts | 216° |
| 2026-04-24 18:59 | 38.95264 | -77.10704 | 1281 ft | 161 kts | 197° |
| 2026-04-24 18:59 | 38.94178 | -77.10465 | 1025 ft | 161 kts | 148° |
| 2026-04-24 18:59 | 38.93339 | -77.09554 | 991 ft | 154 kts | 140° |
| 2026-04-24 18:59 | 38.92469 | -77.08767 | 935 ft | 152 kts | 148° |
| 2026-04-24 19:00 | 38.91567 | -77.08016 | 898 ft | 155 kts | 145° |
| 2026-04-24 19:00 | 38.90696 | -77.07176 | 911 ft | 156 kts | 140° |
| 2026-04-24 19:00 | 38.89858 | -77.06252 | 910 ft | 158 kts | 137° |
| 2026-04-24 19:00 | 38.89050 | -77.05307 | 816 ft | 152 kts | 136° |
| 2026-04-24 19:01 | 38.88213 | -77.04505 | 530 ft | 148 kts | 152° |
| 2026-04-24 19:01 | 38.87295 | -77.04021 | 303 ft | 138 kts | 166° |
| 2026-04-24 19:01 | 38.86373 | -77.03893 | 86 ft | 131 kts | 175° |
| 2026-04-24 19:01 | 38.85553 | -77.03814 | 28 ft | 73 kts | 176° |
| 2026-04-24 19:02 | 38.85341 | -77.03796 | 28 ft | 30 kts | 182° |
| 2026-04-24 19:02 | 38.85262 | -77.03873 | 28 ft | 6 kts | 276° |
| 2026-04-24 19:02 | 38.85284 | -77.03929 | 28 ft | 7 kts | 314° |
| 2026-04-24 19:02 | 38.85316 | -77.03956 | 28 ft | 0 kts | 337° |
| 2026-04-24 19:03 | 38.85321 | -77.03958 | 28 ft | 1 kts | 337° |
| 2026-04-24 19:03 | 38.85322 | -77.03959 | 28 ft | 0 kts | 338° |
| 2026-04-24 19:03 | 38.85326 | -77.03960 | 28 ft | 1 kts | 330° |
| 2026-04-24 19:04 | 38.85336 | -77.03972 | 28 ft | 2 kts | 317° |
| 2026-04-24 19:04 | 38.85352 | -77.03992 | 28 ft | 3 kts | 330° |
| 2026-04-24 19:04 | 38.85382 | -77.04002 | 28 ft | 5 kts | 355° |
| 2026-04-24 19:04 | 38.85422 | -77.04004 | 28 ft | 6 kts | 0° |
| 2026-04-24 19:05 | 38.85472 | -77.04007 | 28 ft | 7 kts | 355° |
| 2026-04-24 19:05 | 38.85526 | -77.04028 | 28 ft | 8 kts | 324° |
| 2026-04-24 19:05 | 38.85532 | -77.04099 | 28 ft | 9 kts | 251° |
| 2026-04-24 19:05 | 38.85515 | -77.04182 | 28 ft | 10 kts | 253° |
| 2026-04-24 19:06 | 38.85505 | -77.04223 | 28 ft | 0 kts | 253° |
| 2026-04-24 19:06 | 38.85504 | -77.04229 | 28 ft | 1 kts | 253° |
| 2026-04-24 19:06 | 38.85505 | -77.04241 | 28 ft | 1 kts | 300° |
| 2026-04-24 19:06 | 38.85521 | -77.04253 | 28 ft | 3 kts | 333° |
| 2026-04-24 19:07 | 38.85548 | -77.04269 | 28 ft | 4 kts | 337° |
| 2026-04-24 19:07 | 38.85556 | -77.04273 | 28 ft | 1 kts | 339° |